Desloge, Missouri
Current Conditions -  °F | °C
As of 6:55 PM on Wednesday 17 Dec 2014 (Local Time) from KFAM Reporting Station
Overcast Overcast  
Wind Chill: 31°   Ceiling: 9000
Heat Index: 37°   Visibility: 10mi
Dew Point: 25°   Wind: 8mph
Humidity: 60%   Direction: 350°N
Pressure: 30.26"   Gusts: NA
Location:  37.8386°N, 90.5648°W
Report Text: KFAM 180055Z AUTO 35007KT 10SM OVC090 03/M04 A3026 RMK AO1
Loading
Personal Weather Stations






























Interactive Weather Map New forecast layout! Learn more

10-Day Weather Forecast

Advertisements
Track Severe Weather on mobile